createdAt,value
2019-01-11T00:02:06.520Z,34.17
2019-01-11T00:04:35.566Z,31.77
2019-01-11T00:07:04.669Z,26.13
2019-01-11T00:09:33.740Z,27.43
2019-01-11T00:12:02.790Z,23.90
2019-01-11T00:14:31.909Z,22.17
2019-01-11T00:17:01.022Z,24.47
2019-01-11T00:19:30.095Z,31.63
2019-01-11T00:22:01.333Z,32.80
2019-01-11T00:24:30.426Z,23.97
2019-01-11T00:26:59.589Z,24.37
2019-01-11T00:29:28.879Z,25.07
2019-01-11T00:31:57.966Z,23.60
2019-01-11T00:34:27.226Z,23.23
2019-01-11T00:36:56.435Z,22.20
2019-01-11T00:39:27.947Z,25.80
2019-01-11T00:41:57.082Z,23.13
2019-01-11T00:44:26.621Z,23.87
2019-01-11T00:46:56.631Z,22.60
2019-01-11T00:49:25.696Z,22.20
2019-01-11T00:51:54.792Z,22.13
2019-01-11T00:54:23.840Z,21.13
2019-01-11T00:56:52.974Z,16.13
2019-01-11T00:59:22.067Z,22.00
2019-01-11T01:01:51.096Z,19.43
2019-01-11T01:04:20.155Z,19.93
2019-01-11T01:06:49.283Z,18.07
2019-01-11T01:09:18.332Z,18.97
2019-01-11T01:11:47.384Z,19.63
2019-01-11T01:14:16.481Z,18.00
2019-01-11T01:16:45.556Z,18.47
2019-01-11T01:19:20.133Z,17.50
2019-01-11T01:21:49.172Z,19.83
2019-01-11T01:24:18.218Z,15.37
2019-01-11T01:26:49.640Z,17.03
2019-01-11T01:29:20.221Z,16.60
2019-01-11T01:31:50.767Z,17.03
2019-01-11T01:34:19.809Z,17.90
2019-01-11T01:36:48.944Z,17.30
2019-01-11T01:39:17.993Z,16.70
2019-01-11T01:41:47.079Z,18.53
2019-01-11T01:44:16.106Z,20.63
2019-01-11T01:46:45.255Z,17.83
2019-01-11T01:49:14.433Z,19.77
2019-01-11T01:51:44.647Z,16.50
2019-01-11T01:54:13.750Z,18.33
2019-01-11T01:56:42.843Z,15.63
2019-01-11T01:59:11.981Z,17.43
2019-01-11T02:01:41.034Z,16.60
2019-01-11T02:04:11.158Z,17.70
2019-01-11T02:06:44.579Z,17.50
2019-01-11T02:09:13.642Z,17.13
2019-01-11T02:11:44.002Z,19.37
2019-01-11T02:14:13.173Z,15.50
2019-01-11T02:16:42.273Z,21.10
2019-01-11T02:19:11.295Z,18.27
2019-01-11T02:21:47.927Z,17.50
2019-01-11T02:24:17.070Z,17.97
2019-01-11T02:26:46.135Z,16.53
2019-01-11T02:29:15.190Z,16.97
2019-01-11T02:31:44.286Z,19.20
2019-01-11T02:34:13.349Z,15.97
2019-01-11T02:36:45.003Z,17.90
2019-01-11T02:39:14.055Z,17.80
2019-01-11T02:41:43.051Z,15.73
2019-01-11T02:44:12.099Z,17.53
2019-01-11T02:46:41.135Z,18.40
2019-01-11T02:49:10.270Z,16.17
2019-01-11T02:51:39.498Z,18.57
2019-01-11T02:54:09.555Z,19.73
2019-01-11T02:56:38.670Z,17.60
2019-01-11T02:59:07.703Z,18.40
2019-01-11T03:01:36.762Z,20.87
2019-01-11T03:04:05.800Z,18.67
2019-01-11T03:06:34.835Z,16.83
2019-01-11T03:09:05.097Z,17.60
2019-01-11T03:11:34.160Z,17.03
2019-01-11T03:14:03.193Z,18.30
2019-01-11T03:16:32.190Z,17.73
2019-01-11T03:19:02.130Z,16.00
2019-01-11T03:21:31.377Z,19.83
2019-01-11T03:24:02.755Z,16.57
2019-01-11T03:26:31.753Z,17.70
2019-01-11T03:29:00.799Z,16.83
2019-01-11T03:31:35.417Z,17.03
2019-01-11T03:34:04.731Z,19.17
2019-01-11T03:36:33.749Z,17.53
2019-01-11T03:39:04.105Z,18.30
2019-01-11T03:41:35.936Z,17.70
2019-01-11T03:44:04.974Z,17.30
2019-01-11T03:46:33.994Z,19.70
2019-01-11T03:49:03.012Z,17.43
2019-01-11T03:51:32.038Z,17.37
2019-01-11T03:54:01.126Z,18.83
2019-01-11T03:56:30.220Z,18.10
2019-01-11T03:58:59.257Z,15.30
2019-01-11T04:01:28.304Z,15.10
2019-01-11T04:03:57.334Z,19.70
2019-01-11T04:06:26.479Z,17.50
2019-01-11T04:08:55.559Z,18.83
2019-01-11T04:11:25.857Z,17.43
2019-01-11T04:13:54.973Z,19.70
2019-01-11T04:16:24.183Z,18.80
2019-01-11T04:19:00.259Z,17.83
2019-01-11T04:21:29.454Z,19.30
2019-01-11T04:23:58.493Z,15.73
2019-01-11T04:26:27.522Z,22.07
2019-01-11T04:28:56.591Z,15.60
2019-01-11T04:31:25.702Z,17.33
2019-01-11T04:33:54.859Z,15.60
2019-01-11T04:36:25.256Z,22.10
2019-01-11T04:38:54.299Z,18.50
2019-01-11T04:41:23.461Z,20.27
2019-01-11T04:43:52.552Z,18.00
2019-01-11T04:46:21.541Z,20.43
2019-01-11T04:48:50.592Z,17.47
2019-01-11T04:51:19.643Z,19.67
2019-01-11T04:53:49.983Z,18.67
2019-01-11T04:56:19.073Z,19.77
2019-01-11T04:58:48.088Z,23.43
2019-01-11T05:01:17.162Z,17.83
2019-01-11T05:03:46.239Z,14.70
2019-01-11T05:06:15.329Z,18.90
2019-01-11T05:08:44.483Z,17.83
2019-01-11T05:11:14.732Z,19.97
2019-01-11T05:13:46.803Z,18.27
2019-01-11T05:16:15.829Z,19.87
2019-01-11T05:18:45.181Z,17.43
2019-01-11T05:21:15.698Z,19.67
2019-01-11T05:23:44.832Z,18.00
2019-01-11T05:26:13.823Z,20.20
2019-01-11T05:28:42.866Z,19.37
2019-01-11T05:31:11.930Z,22.40
2019-01-11T05:33:40.964Z,20.80
2019-01-11T05:36:09.983Z,25.53
2019-01-11T05:38:39.201Z,23.70
2019-01-11T05:41:08.260Z,19.13
2019-01-11T05:43:37.279Z,16.33
2019-01-11T05:46:06.370Z,20.90
2019-01-11T05:48:35.391Z,29.80
2019-01-11T05:51:07.357Z,20.53
2019-01-11T05:53:36.362Z,24.03
2019-01-11T05:56:12.798Z,23.63
2019-01-11T05:58:49.929Z,22.50
2019-01-11T06:01:19.992Z,23.30
2019-01-11T06:03:49.171Z,20.70
2019-01-11T06:06:19.260Z,23.97
2019-01-11T06:08:50.747Z,23.60
2019-01-11T06:11:20.864Z,19.87
2019-01-11T06:13:50.419Z,21.77
2019-01-11T06:16:19.483Z,22.03
2019-01-11T06:18:48.587Z,20.50
2019-01-11T06:21:17.602Z,21.53
2019-01-11T06:23:47.198Z,20.90
2019-01-11T06:26:16.811Z,20.77
2019-01-11T06:28:45.963Z,19.57
2019-01-11T06:31:15.036Z,19.33
2019-01-11T06:33:44.123Z,20.67
2019-01-11T06:36:13.544Z,22.53
2019-01-11T06:38:44.070Z,25.50
2019-01-11T06:41:14.348Z,24.47
2019-01-11T06:43:44.916Z,27.33
2019-01-11T06:46:15.893Z,29.63
2019-01-11T06:48:45.401Z,27.13
2019-01-11T06:51:16.171Z,28.53
2019-01-11T06:53:46.020Z,23.47
2019-01-11T06:56:16.639Z,27.37
2019-01-11T06:58:46.748Z,26.27
2019-01-11T07:01:17.093Z,33.70
2019-01-11T07:03:46.225Z,29.93
2019-01-11T07:06:15.841Z,31.80
2019-01-11T07:08:45.631Z,30.23
2019-01-11T07:11:14.865Z,27.53
2019-01-11T07:13:44.131Z,27.93
2019-01-11T07:16:13.880Z,36.67
2019-01-11T07:18:42.900Z,31.73
2019-01-11T07:21:12.104Z,41.53
2019-01-11T07:23:41.218Z,34.40
2019-01-11T07:26:10.421Z,29.00
2019-01-11T07:28:40.042Z,37.23
2019-01-11T07:31:11.950Z,50.83
2019-01-11T07:33:40.994Z,48.40
2019-01-11T07:36:29.454Z,41.47
2019-01-11T07:38:58.583Z,40.50
2019-01-11T07:41:28.993Z,39.03
2019-01-11T07:43:58.055Z,36.30
2019-01-11T07:46:28.260Z,38.13
2019-01-11T07:48:57.424Z,34.30
2019-01-11T07:51:27.448Z,34.00
2019-01-11T07:53:58.559Z,35.63
2019-01-11T07:56:27.637Z,35.90
2019-01-11T07:58:57.072Z,33.37
2019-01-11T08:01:26.765Z,34.43
2019-01-11T08:03:57.025Z,36.10
2019-01-11T08:06:26.606Z,34.40
2019-01-11T08:08:56.201Z,35.37
2019-01-11T08:11:25.628Z,35.07
2019-01-11T08:13:54.832Z,36.90
2019-01-11T08:16:24.039Z,33.97
2019-01-11T08:18:53.727Z,31.93
2019-01-11T08:21:23.053Z,36.70
2019-01-11T08:23:52.111Z,41.17
2019-01-11T08:26:21.144Z,34.33
2019-01-11T08:28:50.320Z,36.20
2019-01-11T08:31:19.502Z,37.40
2019-01-11T08:33:48.640Z,37.23
2019-01-11T08:36:17.799Z,36.70
2019-01-11T08:38:49.915Z,37.90
2019-01-11T08:41:19.054Z,44.43
2019-01-11T08:43:48.264Z,41.90
2019-01-11T08:46:17.336Z,40.20
2019-01-11T08:48:46.393Z,36.63
2019-01-11T08:51:17.555Z,35.83
2019-01-11T08:53:46.556Z,37.53
2019-01-11T08:56:16.107Z,39.00
2019-01-11T08:58:46.232Z,42.60
2019-01-11T09:01:15.283Z,35.33
2019-01-11T09:03:44.354Z,32.83
2019-01-11T09:06:13.388Z,39.53
2019-01-11T09:08:42.523Z,32.27
2019-01-11T09:11:11.696Z,38.63
2019-01-11T09:13:45.034Z,37.70
2019-01-11T09:16:20.598Z,38.97
2019-01-11T09:18:52.296Z,40.10
2019-01-11T09:21:22.718Z,41.37
2019-01-11T09:23:51.787Z,35.50
2019-01-11T09:26:20.971Z,41.10
2019-01-11T09:28:50.088Z,36.67
2019-01-11T09:31:20.086Z,37.63
2019-01-11T09:33:49.218Z,38.03
2019-01-11T09:36:18.459Z,37.43
2019-01-11T09:38:47.526Z,38.00
2019-01-11T09:41:16.580Z,36.20
2019-01-11T09:43:45.733Z,37.97
2019-01-11T09:46:15.882Z,36.90
2019-01-11T09:48:48.277Z,34.60
2019-01-11T09:51:17.378Z,32.10
2019-01-11T09:53:49.314Z,37.57
2019-01-11T09:56:18.364Z,35.10
2019-01-11T09:58:47.464Z,39.73
2019-01-11T10:01:16.609Z,36.23
2019-01-11T10:03:45.672Z,41.87
2019-01-11T10:06:14.700Z,36.27
2019-01-11T10:08:44.138Z,37.70
2019-01-11T10:11:13.614Z,35.53
2019-01-11T10:13:42.743Z,35.90
2019-01-11T10:16:11.806Z,32.30
2019-01-11T10:18:40.984Z,38.73
2019-01-11T10:21:10.004Z,33.90
2019-01-11T10:23:39.064Z,37.67
2019-01-11T10:26:08.200Z,35.57
2019-01-11T10:28:39.561Z,36.13
2019-01-11T10:31:08.599Z,35.33
2019-01-11T10:33:40.670Z,42.20
2019-01-11T10:36:11.049Z,39.73
2019-01-11T10:38:41.326Z,37.80
2019-01-11T10:41:12.639Z,33.83
2019-01-11T10:43:41.712Z,30.97
2019-01-11T10:46:29.866Z,38.37
2019-01-11T10:48:59.028Z,36.80
2019-01-11T10:51:32.019Z,30.63
2019-01-11T10:54:01.130Z,38.33
2019-01-11T10:56:30.329Z,32.60
2019-01-11T10:58:59.370Z,35.27
2019-01-11T11:01:28.522Z,31.43
2019-01-11T11:03:57.569Z,31.87
2019-01-11T11:06:28.610Z,35.17
2019-01-11T11:08:57.782Z,32.07
2019-01-11T11:11:26.989Z,34.10
2019-01-11T11:13:56.053Z,32.13
2019-01-11T11:16:25.208Z,34.87
2019-01-11T11:18:54.314Z,35.40
2019-01-11T11:21:23.757Z,35.13
2019-01-11T11:23:54.175Z,30.47
2019-01-11T11:26:25.341Z,30.67
2019-01-11T11:28:54.486Z,31.27
2019-01-11T11:31:23.670Z,36.40
2019-01-11T11:33:54.222Z,32.53
2019-01-11T11:36:23.540Z,33.50
2019-01-11T11:38:52.992Z,32.07
2019-01-11T11:41:22.301Z,33.63
2019-01-11T11:43:51.431Z,37.20
2019-01-11T11:46:20.924Z,31.07
2019-01-11T11:48:50.133Z,32.90
2019-01-11T11:51:19.214Z,34.17
2019-01-11T11:53:48.270Z,34.33
2019-01-11T11:56:17.484Z,35.33
2019-01-11T11:58:46.647Z,29.20
2019-01-11T12:01:15.826Z,28.50
2019-01-11T12:03:45.229Z,25.33
2019-01-11T12:06:14.859Z,26.80
2019-01-11T12:08:44.908Z,25.57
2019-01-11T12:11:15.496Z,23.10
2019-01-11T12:13:44.885Z,18.37
2019-01-11T12:16:14.404Z,25.00
2019-01-11T12:18:44.534Z,20.13
2019-01-11T12:21:16.290Z,23.23
2019-01-11T12:23:45.804Z,30.23
2019-01-11T12:26:16.084Z,25.47
2019-01-11T12:28:47.112Z,26.37
2019-01-11T12:31:16.275Z,21.17
2019-01-11T12:33:45.493Z,24.67
2019-01-11T12:36:15.224Z,16.67
2019-01-11T12:38:46.112Z,20.80
2019-01-11T12:41:15.804Z,18.93
2019-01-11T12:43:44.990Z,17.87
2019-01-11T12:46:14.607Z,18.23
2019-01-11T12:48:43.753Z,17.07
2019-01-11T12:51:12.892Z,19.87
2019-01-11T12:53:41.984Z,20.57
2019-01-11T12:56:11.086Z,17.87
2019-01-11T12:58:40.262Z,19.53
2019-01-11T13:01:09.449Z,23.83
2019-01-11T13:03:38.712Z,21.83
2019-01-11T13:06:08.070Z,21.00
2019-01-11T13:08:37.265Z,18.30
2019-01-11T13:11:06.706Z,20.03
2019-01-11T13:13:36.496Z,19.80
2019-01-11T13:16:10.674Z,19.30
2019-01-11T13:18:41.257Z,16.37
2019-01-11T13:21:10.311Z,19.97
2019-01-11T13:23:39.609Z,18.77
2019-01-11T13:26:11.421Z,18.07
2019-01-11T13:28:40.591Z,20.43
2019-01-11T13:31:10.881Z,19.80
2019-01-11T13:33:40.393Z,19.70
2019-01-11T13:36:18.278Z,19.37
2019-01-11T13:38:47.413Z,22.63
2019-01-11T13:41:16.557Z,22.17
2019-01-11T13:43:51.039Z,20.70
2019-01-11T13:46:21.657Z,15.30
2019-01-11T13:48:51.830Z,19.17
2019-01-11T13:51:24.009Z,18.23
2019-01-11T13:53:53.187Z,19.23
2019-01-11T13:56:22.304Z,19.93
2019-01-11T13:58:51.498Z,17.10
2019-01-11T14:01:20.648Z,18.73
2019-01-11T14:03:49.740Z,18.10
2019-01-11T14:06:20.865Z,17.13
2019-01-11T14:08:50.177Z,22.63
2019-01-11T14:11:20.539Z,17.90
2019-01-11T14:13:49.910Z,20.00
2019-01-11T14:16:20.548Z,29.43
2019-01-11T14:18:49.999Z,18.43
2019-01-11T14:21:20.293Z,20.43
2019-01-11T14:23:49.629Z,17.60
2019-01-11T14:26:21.098Z,19.53
2019-01-11T14:28:50.239Z,16.73
2019-01-11T14:31:19.272Z,17.63
2019-01-11T14:33:48.333Z,24.03
2019-01-11T14:36:17.976Z,21.83
2019-01-11T14:38:47.052Z,19.33
2019-01-11T14:41:16.660Z,22.43
2019-01-11T14:43:46.928Z,21.27
2019-01-11T14:46:17.362Z,19.30
2019-01-11T14:48:46.511Z,24.07
2019-01-11T14:51:15.612Z,21.60
2019-01-11T14:53:44.742Z,20.90
2019-01-11T14:56:13.813Z,21.03
2019-01-11T14:58:42.776Z,21.43
2019-01-11T15:01:11.918Z,22.10
2019-01-11T15:03:41.153Z,20.30
2019-01-11T15:06:10.257Z,23.17
2019-01-11T15:08:39.459Z,26.30
2019-01-11T15:11:10.279Z,24.60
2019-01-11T15:13:39.326Z,27.27
2019-01-11T15:16:08.363Z,23.37
2019-01-11T15:18:37.423Z,28.17
2019-01-11T15:21:06.903Z,24.57
2019-01-11T15:23:35.893Z,27.23
2019-01-11T15:26:04.996Z,22.53
2019-01-11T15:28:34.045Z,25.17
2019-01-11T15:31:03.196Z,23.37
2019-01-11T15:33:32.752Z,24.17
2019-01-11T15:36:01.879Z,25.57
2019-01-11T15:38:32.782Z,26.37
2019-01-11T15:41:01.883Z,25.07
2019-01-11T15:43:30.961Z,26.00
2019-01-11T15:46:05.732Z,23.07
2019-01-11T15:48:48.968Z,24.53
2019-01-11T15:51:20.780Z,27.70
2019-01-11T15:53:49.870Z,27.77
2019-01-11T15:56:28.404Z,28.00
2019-01-11T15:58:57.576Z,29.20
2019-01-11T16:01:27.971Z,28.67
2019-01-11T16:03:57.004Z,29.40
2019-01-11T16:06:33.843Z,24.33
2019-01-11T16:10:01.147Z,26.73
2019-01-11T16:12:33.677Z,28.10
2019-01-11T16:15:43.507Z,27.07
2019-01-11T16:18:28.204Z,28.47
2019-01-11T16:20:57.276Z,26.43
2019-01-11T16:23:26.329Z,31.30
2019-01-11T16:25:56.661Z,29.40
2019-01-11T16:28:26.983Z,32.27
2019-01-11T16:30:55.993Z,31.63
2019-01-11T16:33:25.786Z,39.10
2019-01-11T16:35:54.954Z,33.00
2019-01-11T16:38:24.298Z,32.47
2019-01-11T16:40:53.703Z,35.77
2019-01-11T16:43:22.732Z,34.93
2019-01-11T16:45:52.257Z,30.97
2019-01-11T16:48:21.563Z,38.73
2019-01-11T16:50:52.315Z,40.07
2019-01-11T16:53:21.842Z,43.23
2019-01-11T16:55:51.156Z,40.60
2019-01-11T16:58:21.168Z,42.40
2019-01-11T17:00:50.608Z,43.77
2019-01-11T17:03:19.831Z,38.33
2019-01-11T17:05:48.989Z,35.73
2019-01-11T17:08:18.230Z,37.57
2019-01-11T17:10:47.453Z,40.73
2019-01-11T17:13:17.643Z,41.83
2019-01-11T17:15:46.775Z,43.83
2019-01-11T17:18:16.299Z,44.27
2019-01-11T17:20:45.867Z,41.63
2019-01-11T17:23:15.632Z,42.50
2019-01-11T17:25:45.220Z,42.07
2019-01-11T17:28:14.374Z,40.40
2019-01-11T17:30:43.586Z,37.27
2019-01-11T17:33:12.610Z,39.07
2019-01-11T17:35:41.606Z,44.00
2019-01-11T17:38:10.691Z,40.23
2019-01-11T17:40:39.667Z,38.97
2019-01-11T17:43:08.709Z,40.00
2019-01-11T17:45:37.992Z,35.60
2019-01-11T17:48:07.052Z,38.80
2019-01-11T17:50:36.104Z,35.57
2019-01-11T17:53:05.111Z,40.37
2019-01-11T17:55:37.117Z,40.63
2019-01-11T17:58:06.437Z,40.53
2019-01-11T18:00:36.178Z,45.27
2019-01-11T18:03:06.804Z,37.80
2019-01-11T18:05:37.967Z,36.20
2019-01-11T18:08:07.165Z,37.23
2019-01-11T18:10:36.359Z,42.40
2019-01-11T18:13:05.444Z,37.93
2019-01-11T18:15:34.559Z,40.27
2019-01-11T18:18:03.948Z,40.17
2019-01-11T18:20:33.389Z,41.13
2019-01-11T18:23:06.833Z,37.57
2019-01-11T18:25:33.243Z,36.07
2019-01-11T18:28:02.424Z,33.13
2019-01-11T18:30:31.559Z,30.70
2019-01-11T18:33:00.684Z,32.93
2019-01-11T18:35:30.074Z,33.07
2019-01-11T18:37:59.082Z,30.50
2019-01-11T18:40:28.145Z,31.80
2019-01-11T18:42:57.182Z,33.43
2019-01-11T18:45:29.058Z,36.97
2019-01-11T18:47:58.225Z,30.40
2019-01-11T18:50:27.264Z,37.53
2019-01-11T18:52:56.305Z,36.70
2019-01-11T18:55:26.589Z,31.93
2019-01-11T18:57:55.646Z,35.77
2019-01-11T19:00:25.053Z,37.87
2019-01-11T19:02:54.077Z,40.13
2019-01-11T19:05:23.178Z,34.67
2019-01-11T19:07:52.504Z,40.77
2019-01-11T19:10:21.704Z,37.07
2019-01-11T19:12:50.753Z,35.70
2019-01-11T19:15:26.061Z,37.43
2019-01-11T19:17:56.575Z,39.50
2019-01-11T19:20:30.326Z,34.60
2019-01-11T19:23:01.117Z,38.87
2019-01-11T19:25:30.185Z,36.03
2019-01-11T19:28:02.324Z,36.70
2019-01-11T19:30:31.631Z,36.87
2019-01-11T19:33:00.902Z,34.50
2019-01-11T19:35:29.977Z,34.47
2019-01-11T19:37:59.196Z,33.17
2019-01-11T19:40:29.765Z,31.23
2019-01-11T19:42:59.073Z,32.50
2019-01-11T19:45:28.219Z,30.47
2019-01-11T19:47:57.352Z,32.13
2019-01-11T19:50:26.563Z,30.63
2019-01-11T19:52:55.609Z,28.50
2019-01-11T19:55:25.123Z,33.67
2019-01-11T19:57:54.719Z,35.30
2019-01-11T20:00:28.869Z,35.10
2019-01-11T20:02:59.469Z,32.43
2019-01-11T20:05:28.551Z,31.03
2019-01-11T20:07:57.668Z,38.07
2019-01-11T20:10:31.717Z,35.13
2019-01-11T20:13:02.289Z,35.43
2019-01-11T20:15:31.516Z,33.87
2019-01-11T20:18:00.632Z,30.57
2019-01-11T20:20:30.026Z,34.13
2019-01-11T20:23:02.440Z,32.83
2019-01-11T20:25:29.838Z,37.03
2019-01-11T20:27:59.269Z,38.83
2019-01-11T20:30:28.789Z,116.57
2019-01-11T20:32:57.975Z,88.93
2019-01-11T20:35:27.141Z,60.67
2019-01-11T20:37:56.185Z,58.83
2019-01-11T20:40:25.191Z,43.00
2019-01-11T20:42:54.262Z,56.37
2019-01-11T20:45:23.343Z,60.80
2019-01-11T20:47:52.422Z,37.10
2019-01-11T20:50:25.866Z,31.60
2019-01-11T20:52:56.911Z,31.53
2019-01-11T20:55:26.022Z,29.93
2019-01-11T20:57:55.541Z,31.33
2019-01-11T21:00:27.305Z,30.47
2019-01-11T21:02:57.742Z,31.00
2019-01-11T21:05:27.138Z,29.37
2019-01-11T21:07:56.196Z,31.87
2019-01-11T21:10:25.209Z,29.30
2019-01-11T21:12:54.290Z,30.37
2019-01-11T21:15:23.453Z,25.67
2019-01-11T21:17:53.874Z,26.80
2019-01-11T21:20:22.941Z,29.60
2019-01-11T21:22:51.991Z,27.13
2019-01-11T21:25:21.081Z,32.50
2019-01-11T21:27:50.097Z,27.07
2019-01-11T21:30:29.797Z,33.70
2019-01-11T21:32:58.849Z,28.33
2019-01-11T21:35:27.879Z,31.53
2019-01-11T21:37:57.245Z,29.60
2019-01-11T21:40:28.178Z,30.53
2019-01-11T21:42:57.482Z,28.53
2019-01-11T21:45:26.690Z,27.00
2019-01-11T21:47:57.507Z,29.07
2019-01-11T21:50:29.157Z,29.03
2019-01-11T21:52:59.548Z,26.47
2019-01-11T21:55:28.835Z,25.73
2019-01-11T21:57:58.147Z,27.20
2019-01-11T22:00:45.097Z,26.67
2019-01-11T22:03:19.397Z,29.77
2019-01-11T22:05:48.720Z,25.90
2019-01-11T22:08:17.752Z,24.90
2019-01-11T22:10:46.924Z,24.73
2019-01-11T22:13:17.649Z,28.07
2019-01-11T22:15:46.675Z,26.80
2019-01-11T22:18:15.765Z,29.43
2019-01-11T22:20:45.144Z,32.33
2019-01-11T22:23:14.210Z,29.83
2019-01-11T22:25:43.616Z,30.43
2019-01-11T22:28:12.894Z,29.53
2019-01-11T22:30:43.672Z,26.70
2019-01-11T22:33:12.718Z,28.17
2019-01-11T22:35:42.374Z,28.47
2019-01-11T22:38:11.913Z,27.37
2019-01-11T22:40:40.948Z,28.40
2019-01-11T22:43:10.757Z,27.27
2019-01-11T22:45:39.979Z,29.50
2019-01-11T22:48:09.505Z,29.23
2019-01-11T22:50:40.073Z,30.60
2019-01-11T22:53:09.376Z,28.10
2019-01-11T22:55:38.849Z,29.47
2019-01-11T22:58:08.942Z,26.50
2019-01-11T23:00:59.915Z,30.97
2019-01-11T23:03:34.975Z,28.27
2019-01-11T23:06:29.361Z,27.97
2019-01-11T23:08:58.452Z,29.33
2019-01-11T23:12:09.372Z,27.83
2019-01-11T23:14:38.438Z,30.70
2019-01-11T23:17:23.545Z,24.33
2019-01-11T23:19:52.574Z,30.47
2019-01-11T23:22:21.661Z,26.43
2019-01-11T23:24:50.781Z,29.50
2019-01-11T23:27:19.884Z,30.77
2019-01-11T23:29:51.307Z,30.93
2019-01-11T23:32:20.447Z,31.10
2019-01-11T23:34:49.731Z,31.70
2019-01-11T23:37:18.804Z,30.43
2019-01-11T23:39:48.562Z,35.17
2019-01-11T23:42:17.714Z,32.20
2019-01-11T23:44:46.762Z,34.63
2019-01-11T23:47:15.778Z,35.47
2019-01-11T23:49:44.859Z,33.03
2019-01-11T23:52:13.926Z,34.77
2019-01-11T23:54:42.938Z,33.57
2019-01-11T23:57:12.074Z,36.73
2019-01-11T23:59:41.128Z,36.60
